createdAt,value
2022-08-18T00:02:03.657Z,94.20
2022-08-18T00:04:36.299Z,94.02
2022-08-18T00:07:03.866Z,94.45
2022-08-18T00:09:33.134Z,94.19
2022-08-18T00:12:01.851Z,94.34
2022-08-18T00:14:34.385Z,94.22
2022-08-18T00:17:01.096Z,94.11
2022-08-18T00:19:46.136Z,94.19
2022-08-18T00:22:18.697Z,93.88
2022-08-18T00:24:49.218Z,93.90
2022-08-18T00:27:23.660Z,93.74
2022-08-18T00:29:54.594Z,94.34
2022-08-18T00:32:29.124Z,94.58
2022-08-18T00:34:56.432Z,94.70
2022-08-18T00:37:24.460Z,94.67
2022-08-18T00:39:53.523Z,95.13
2022-08-18T00:42:30.362Z,95.27
2022-08-18T00:45:04.659Z,95.30
2022-08-18T00:47:41.459Z,95.50
2022-08-18T00:50:15.126Z,95.23
2022-08-18T00:52:49.861Z,95.58
2022-08-18T00:55:18.195Z,95.47
2022-08-18T00:57:48.400Z,95.38
2022-08-18T01:00:15.370Z,95.26
2022-08-18T01:02:50.726Z,95.05
2022-08-18T01:05:27.249Z,95.00
2022-08-18T01:07:56.678Z,94.90
2022-08-18T01:10:24.524Z,95.13
2022-08-18T01:12:54.874Z,94.55
2022-08-18T01:15:28.931Z,95.02
2022-08-18T01:18:22.945Z,94.59
2022-08-18T01:21:23.342Z,94.54
2022-08-18T01:23:53.700Z,94.49
2022-08-18T01:26:22.718Z,94.69
2022-08-18T01:28:52.506Z,94.42
2022-08-18T01:31:53.221Z,94.60
2022-08-18T01:34:24.817Z,94.59
2022-08-18T01:36:53.443Z,94.62
2022-08-18T01:41:00.948Z,94.76
2022-08-18T01:42:07.638Z,94.78
2022-08-18T01:44:34.562Z,95.04
2022-08-18T01:47:01.133Z,94.47
2022-08-18T01:49:28.897Z,94.41
2022-08-18T01:51:55.771Z,94.81
2022-08-18T01:54:23.026Z,94.32
2022-08-18T01:56:49.715Z,94.61
2022-08-18T01:59:16.339Z,94.82
2022-08-18T02:01:48.815Z,95.08
2022-08-18T02:04:36.968Z,95.12
2022-08-18T02:07:08.497Z,95.08
2022-08-18T02:09:37.593Z,95.16
2022-08-18T02:12:05.943Z,95.31
2022-08-18T02:14:33.781Z,95.02
2022-08-18T02:17:03.294Z,95.27
2022-08-18T02:19:44.565Z,95.26
2022-08-18T02:22:14.311Z,95.43
2022-08-18T02:24:41.103Z,95.29
2022-08-18T02:27:09.576Z,95.52
2022-08-18T02:29:37.056Z,95.95
2022-08-18T02:32:04.232Z,96.11
2022-08-18T02:34:33.601Z,96.26
2022-08-18T02:37:01.194Z,96.49
2022-08-18T02:39:28.669Z,96.51
2022-08-18T02:41:55.333Z,96.37
2022-08-18T02:44:22.165Z,96.54
2022-08-18T02:46:53.764Z,96.33
2022-08-18T02:49:20.321Z,96.59
2022-08-18T02:51:46.862Z,96.91
2022-08-18T02:54:13.380Z,96.81
2022-08-18T02:56:42.256Z,96.92
2022-08-18T02:59:13.510Z,97.22
2022-08-18T03:01:45.062Z,97.13
2022-08-18T03:04:17.539Z,97.17
2022-08-18T03:06:46.395Z,97.06
2022-08-18T03:09:16.306Z,97.26
2022-08-18T03:11:43.888Z,97.37
2022-08-18T03:14:11.628Z,97.68
2022-08-18T03:16:52.706Z,97.63
2022-08-18T03:19:30.753Z,97.54
2022-08-18T03:22:03.065Z,98.05
2022-08-18T03:24:32.089Z,97.98
2022-08-18T03:27:02.855Z,97.90
2022-08-18T03:29:32.654Z,97.76
2022-08-18T03:32:01.435Z,97.94
2022-08-18T03:34:31.611Z,97.88
2022-08-18T03:37:01.245Z,97.71
2022-08-18T03:39:28.542Z,97.66
2022-08-18T03:41:59.487Z,97.38
2022-08-18T03:44:30.785Z,97.11
2022-08-18T03:47:03.110Z,97.06
2022-08-18T03:49:33.746Z,97.00
2022-08-18T03:52:01.554Z,96.97
2022-08-18T03:54:29.050Z,96.96
2022-08-18T03:56:55.910Z,96.80
2022-08-18T03:59:25.668Z,96.75
2022-08-18T04:01:55.149Z,96.57
2022-08-18T04:04:25.563Z,96.50
2022-08-18T04:06:55.804Z,96.57
2022-08-18T04:09:24.704Z,96.55
2022-08-18T04:11:52.322Z,96.62
2022-08-18T04:14:24.826Z,96.83
2022-08-18T04:16:51.981Z,97.07
2022-08-18T04:19:23.126Z,97.07
2022-08-18T04:21:58.031Z,96.85
2022-08-18T04:24:26.444Z,97.23
2022-08-18T04:26:55.744Z,97.24
2022-08-18T04:29:22.854Z,97.33
2022-08-18T04:31:51.520Z,97.23
2022-08-18T04:34:22.674Z,97.46
2022-08-18T04:36:54.063Z,97.28
2022-08-18T04:39:22.310Z,97.14
2022-08-18T04:41:49.432Z,96.99
2022-08-18T04:44:18.185Z,96.80
2022-08-18T04:46:48.879Z,96.67
2022-08-18T04:49:17.593Z,96.47
2022-08-18T04:52:22.497Z,96.37
2022-08-18T04:54:57.430Z,96.22
2022-08-18T04:57:26.516Z,95.98
2022-08-18T04:59:54.831Z,95.97
2022-08-18T05:02:22.236Z,95.95
2022-08-18T05:04:49.206Z,94.99
2022-08-18T05:07:20.092Z,93.31
2022-08-18T05:09:48.518Z,92.42
2022-08-18T05:12:15.962Z,92.90
2022-08-18T05:14:47.011Z,92.72
2022-08-18T05:17:16.334Z,92.40
2022-08-18T05:19:44.598Z,90.62
2022-08-18T05:22:13.947Z,86.65
2022-08-18T05:24:41.323Z,83.77
2022-08-18T05:27:07.915Z,81.35
2022-08-18T05:29:36.774Z,78.79
2022-08-18T05:32:08.720Z,76.74
2022-08-18T05:34:35.726Z,74.47
2022-08-18T05:37:36.373Z,71.96
2022-08-18T05:40:11.643Z,69.35
2022-08-18T05:42:40.821Z,66.79
2022-08-18T05:45:15.422Z,65.50
2022-08-18T05:47:44.691Z,63.33
2022-08-18T05:50:19.791Z,61.24
2022-08-18T05:52:59.724Z,58.98
2022-08-18T05:55:50.685Z,56.82
2022-08-18T05:58:39.850Z,55.35
2022-08-18T06:01:13.548Z,54.01
2022-08-18T06:03:51.205Z,52.70
2022-08-18T06:06:27.951Z,52.30
2022-08-18T06:09:10.872Z,51.97
2022-08-18T06:11:37.490Z,51.08
2022-08-18T06:14:04.691Z,49.94
2022-08-18T06:16:53.978Z,48.87
2022-08-18T06:19:46.904Z,47.25
2022-08-18T06:22:27.016Z,45.32
2022-08-18T06:25:14.006Z,44.85
2022-08-18T06:28:02.133Z,43.67
2022-08-18T06:30:47.558Z,42.94
2022-08-18T06:33:32.497Z,42.63
2022-08-18T06:36:23.867Z,42.38
2022-08-18T06:39:26.651Z,42.30
2022-08-18T06:41:56.285Z,40.46
2022-08-18T06:44:40.674Z,41.47
2022-08-18T06:47:23.032Z,40.17
2022-08-18T06:50:26.253Z,40.81
2022-08-18T06:52:59.018Z,38.58
2022-08-18T06:55:39.811Z,39.67
2022-08-18T06:58:12.380Z,38.42
2022-08-18T07:00:43.920Z,36.70
2022-08-18T07:03:22.151Z,36.32
2022-08-18T07:06:13.662Z,39.79
2022-08-18T07:08:42.641Z,38.98
2022-08-18T07:11:17.669Z,36.84
2022-08-18T07:13:58.648Z,37.83
2022-08-18T07:16:57.297Z,41.90
2022-08-18T07:19:30.945Z,39.05
2022-08-18T07:22:18.601Z,41.48
2022-08-18T07:24:49.296Z,44.21
2022-08-18T07:27:19.063Z,45.15
2022-08-18T07:30:26.976Z,49.45
2022-08-18T07:33:03.786Z,52.49
2022-08-18T07:35:45.973Z,48.01
2022-08-18T07:38:43.176Z,47.79
2022-08-18T07:41:21.162Z,49.21
2022-08-18T07:44:02.566Z,45.81
2022-08-18T07:46:42.770Z,41.74
2022-08-18T07:49:22.348Z,42.99
2022-08-18T07:51:57.685Z,46.82
2022-08-18T07:54:51.331Z,49.15
2022-08-18T07:58:00.424Z,43.96
2022-08-18T08:00:58.658Z,42.35
2022-08-18T08:03:53.845Z,41.02
2022-08-18T08:06:38.496Z,41.41
2022-08-18T08:09:36.408Z,42.29
2022-08-18T08:12:31.036Z,43.37
2022-08-18T08:15:30.892Z,43.21
2022-08-18T08:18:15.856Z,43.23
2022-08-18T08:20:53.849Z,44.98
2022-08-18T08:23:22.067Z,46.60
2022-08-18T08:26:07.412Z,43.72
2022-08-18T08:28:39.446Z,46.02
2022-08-18T08:31:36.999Z,49.40
2022-08-18T08:34:30.414Z,49.21
2022-08-18T08:37:20.243Z,51.43
2022-08-18T08:39:51.083Z,52.41
2022-08-18T08:42:40.267Z,47.02
2022-08-18T08:45:13.612Z,44.54
2022-08-18T08:47:49.807Z,47.98
2022-08-18T08:50:21.777Z,51.66
2022-08-18T08:53:06.751Z,50.35
2022-08-18T08:55:37.200Z,47.10
2022-08-18T08:58:18.801Z,50.22
2022-08-18T09:00:47.674Z,50.62
2022-08-18T09:03:30.081Z,50.66
2022-08-18T09:06:00.434Z,52.94
2022-08-18T09:08:32.766Z,54.44
2022-08-18T09:11:27.747Z,55.21
2022-08-18T09:14:21.967Z,56.21
2022-08-18T09:17:03.539Z,56.80
2022-08-18T09:19:55.639Z,57.11
2022-08-18T09:22:43.959Z,54.01
2022-08-18T09:25:41.906Z,49.10
2022-08-18T09:28:11.913Z,47.14
2022-08-18T09:30:51.814Z,47.76
2022-08-18T09:33:27.008Z,51.10
2022-08-18T09:36:06.005Z,52.68
2022-08-18T09:39:06.025Z,53.33
2022-08-18T09:41:38.085Z,54.41
2022-08-18T09:46:59.912Z,54.87
2022-08-18T09:49:26.664Z,53.88
2022-08-18T09:52:24.220Z,52.76
2022-08-18T09:54:59.521Z,51.25
2022-08-18T09:57:27.404Z,49.02
2022-08-18T10:00:16.967Z,48.59
2022-08-18T10:02:47.638Z,49.07
2022-08-18T10:05:16.767Z,49.11
2022-08-18T10:07:46.042Z,48.85
2022-08-18T10:10:59.116Z,48.96
2022-08-18T10:13:25.535Z,49.75
2022-08-18T10:16:28.074Z,50.53
2022-08-18T10:19:13.979Z,50.68
2022-08-18T10:21:58.684Z,52.15
2022-08-18T10:24:38.080Z,52.09
2022-08-18T10:27:36.748Z,52.84
2022-08-18T10:30:05.601Z,53.00
2022-08-18T10:32:41.698Z,52.46
2022-08-18T10:35:36.220Z,52.26
2022-08-18T10:38:26.058Z,52.87
2022-08-18T10:41:15.284Z,52.69
2022-08-18T10:43:55.578Z,52.57
2022-08-18T10:46:33.070Z,53.01
2022-08-18T10:49:14.021Z,51.79
2022-08-18T10:52:09.065Z,51.99
2022-08-18T10:54:51.793Z,51.47
2022-08-18T10:57:56.912Z,50.12
2022-08-18T11:00:49.272Z,50.34
2022-08-18T11:06:48.579Z,49.28
2022-08-18T11:09:28.188Z,49.08
2022-08-18T11:12:01.277Z,48.97
2022-08-18T11:14:49.947Z,49.46
2022-08-18T11:17:25.068Z,50.15
2022-08-18T11:19:56.883Z,50.72
2022-08-18T11:22:31.387Z,50.61
2022-08-18T11:25:03.353Z,51.55
2022-08-18T11:27:40.475Z,51.53
2022-08-18T11:30:12.189Z,51.98
2022-08-18T11:32:42.652Z,52.47
2022-08-18T11:35:24.299Z,52.59
2022-08-18T11:38:00.870Z,51.75
2022-08-18T11:41:11.032Z,51.51
2022-08-18T11:43:41.235Z,50.57
2022-08-18T11:46:32.587Z,50.92
2022-08-18T11:49:15.705Z,49.79
2022-08-18T11:51:56.198Z,49.25
2022-08-18T11:54:33.566Z,47.82
2022-08-18T11:57:46.415Z,47.86
2022-08-18T12:00:42.869Z,48.39
2022-08-18T12:03:15.755Z,47.97
2022-08-18T12:05:54.174Z,47.85
2022-08-18T12:08:56.653Z,48.03
2022-08-18T12:11:54.392Z,47.89
2022-08-18T12:14:32.252Z,48.12
2022-08-18T12:17:02.637Z,47.88
2022-08-18T12:19:31.194Z,48.04
2022-08-18T12:22:01.963Z,48.21
2022-08-18T12:24:40.468Z,48.08
2022-08-18T12:27:20.486Z,48.42
2022-08-18T12:29:49.704Z,47.78
2022-08-18T12:32:41.394Z,46.77
2022-08-18T12:35:11.612Z,45.52
2022-08-18T12:37:58.872Z,45.36
2022-08-18T12:40:27.429Z,44.93
2022-08-18T12:45:41.439Z,44.12
2022-08-18T12:48:08.614Z,44.17
2022-08-18T12:56:30.221Z,44.44
2022-08-18T12:58:59.948Z,43.96
2022-08-18T13:01:29.688Z,44.00
2022-08-18T13:04:11.099Z,44.33
2022-08-18T13:06:59.303Z,44.39
2022-08-18T13:09:42.902Z,45.08
2022-08-18T13:12:19.765Z,44.52
2022-08-18T13:14:47.638Z,44.47
2022-08-18T13:17:32.283Z,43.83
2022-08-18T13:20:27.175Z,43.94
2022-08-18T13:22:53.815Z,43.48
2022-08-18T13:25:33.033Z,43.69
2022-08-18T13:28:06.258Z,43.84
2022-08-18T13:30:35.630Z,43.65
2022-08-18T13:33:06.149Z,43.93
2022-08-18T13:35:54.890Z,44.32
2022-08-18T13:38:26.047Z,43.95
2022-08-18T13:40:57.725Z,44.14
2022-08-18T13:43:32.016Z,43.75
2022-08-18T13:45:59.904Z,43.62
2022-08-18T13:48:30.459Z,43.31
2022-08-18T13:50:59.908Z,43.40
2022-08-18T13:53:29.606Z,43.16
2022-08-18T13:55:59.060Z,43.34
2022-08-18T13:58:27.308Z,43.50
2022-08-18T14:01:22.931Z,44.45
2022-08-18T14:03:48.136Z,44.63
2022-08-18T14:06:22.965Z,44.76
2022-08-18T14:08:51.743Z,44.44
2022-08-18T14:11:18.818Z,44.58
2022-08-18T14:13:45.506Z,44.22
2022-08-18T14:16:18.460Z,44.17
2022-08-18T14:19:10.095Z,44.07
2022-08-18T14:22:02.721Z,44.54
2022-08-18T14:24:48.692Z,44.76
2022-08-18T14:27:16.657Z,44.86
2022-08-18T14:29:46.035Z,44.96
2022-08-18T14:32:18.123Z,44.57
2022-08-18T14:34:51.325Z,44.71
2022-08-18T14:37:30.790Z,44.81
2022-08-18T14:40:00.729Z,44.59
2022-08-18T14:42:32.904Z,44.53
2022-08-18T14:45:26.325Z,44.55
2022-08-18T14:47:58.486Z,44.84
2022-08-18T14:50:26.704Z,44.87
2022-08-18T14:52:53.852Z,44.77
2022-08-18T14:55:22.722Z,44.16
2022-08-18T14:57:50.371Z,43.86
2022-08-18T15:00:22.510Z,43.56
2022-08-18T15:02:49.713Z,44.14
2022-08-18T15:05:24.454Z,44.48
2022-08-18T15:07:51.791Z,45.11
2022-08-18T15:10:19.909Z,45.00
2022-08-18T15:12:50.310Z,45.04
2022-08-18T15:15:18.375Z,45.23
2022-08-18T15:17:45.586Z,45.63
2022-08-18T15:20:24.070Z,45.30
2022-08-18T15:23:17.571Z,45.12
2022-08-18T15:25:51.227Z,45.52
2022-08-18T15:28:25.218Z,44.99
2022-08-18T15:31:16.556Z,45.23
2022-08-18T15:33:39.142Z,44.57
2022-08-18T15:36:09.953Z,44.36
2022-08-18T15:38:37.318Z,44.44
2022-08-18T15:41:06.084Z,44.66
2022-08-18T15:43:35.734Z,44.54
2022-08-18T15:46:16.847Z,44.58
2022-08-18T15:48:43.630Z,44.59
2022-08-18T15:51:12.214Z,44.61
2022-08-18T15:53:44.941Z,44.69
2022-08-18T15:56:20.969Z,44.64
2022-08-18T15:58:49.260Z,44.29
2022-08-18T16:01:29.940Z,44.83
2022-08-18T16:04:01.187Z,44.82
2022-08-18T16:06:32.478Z,44.91
2022-08-18T16:09:00.424Z,44.89
2022-08-18T16:11:28.954Z,45.42
2022-08-18T16:13:58.790Z,45.66
2022-08-18T16:16:28.885Z,45.62
2022-08-18T16:19:04.446Z,46.25
2022-08-18T16:21:31.243Z,46.57
2022-08-18T16:23:58.934Z,46.51
2022-08-18T16:26:29.570Z,47.25
2022-08-18T16:28:58.299Z,47.88
2022-08-18T16:31:28.369Z,47.83
2022-08-18T16:33:57.160Z,48.06
2022-08-18T16:36:27.273Z,48.04
2022-08-18T16:38:58.062Z,48.42
2022-08-18T16:41:26.531Z,48.36
2022-08-18T16:43:53.405Z,48.32
2022-08-18T16:46:26.195Z,48.05
2022-08-18T16:48:54.472Z,48.02
2022-08-18T16:51:25.324Z,48.17
2022-08-18T16:53:53.423Z,48.31
2022-08-18T16:56:23.831Z,48.00
2022-08-18T16:59:09.752Z,48.15
2022-08-18T17:01:56.496Z,48.25
2022-08-18T17:04:28.899Z,48.42
2022-08-18T17:06:57.179Z,48.72
2022-08-18T17:09:23.827Z,48.95
2022-08-18T17:11:52.310Z,49.26
2022-08-18T17:14:24.886Z,49.57
2022-08-18T17:16:55.886Z,49.43
2022-08-18T17:19:24.253Z,49.66
2022-08-18T17:21:51.132Z,49.38
2022-08-18T17:24:21.795Z,49.53
2022-08-18T17:27:26.437Z,50.23
2022-08-18T17:30:07.128Z,50.38
2022-08-18T17:32:51.681Z,50.46
2022-08-18T17:35:28.745Z,50.50
2022-08-18T17:38:13.800Z,50.10
2022-08-18T17:40:46.600Z,50.49
2022-08-18T17:43:18.023Z,50.52
2022-08-18T17:45:57.451Z,50.92
2022-08-18T17:48:28.726Z,50.93
2022-08-18T17:51:21.013Z,51.04
2022-08-18T17:53:48.553Z,51.40
2022-08-18T17:56:20.427Z,51.40
2022-08-18T17:59:00.728Z,51.70
2022-08-18T18:01:27.662Z,52.23
2022-08-18T18:03:54.540Z,52.24
2022-08-18T18:06:35.995Z,52.56
2022-08-18T18:09:10.191Z,52.75
2022-08-18T18:11:45.605Z,53.05
2022-08-18T18:14:38.334Z,53.07
2022-08-18T18:17:28.544Z,53.10
2022-08-18T18:20:17.714Z,53.64
2022-08-18T18:22:44.715Z,53.91
2022-08-18T18:25:13.387Z,53.91
2022-08-18T18:27:50.553Z,54.15
2022-08-18T18:30:28.073Z,54.84
2022-08-18T18:33:12.988Z,54.84
2022-08-18T18:35:57.107Z,55.29
2022-08-18T18:38:37.890Z,55.51
2022-08-18T18:41:07.144Z,55.71
2022-08-18T18:43:35.410Z,56.28
2022-08-18T18:46:19.158Z,55.82
2022-08-18T18:49:13.951Z,56.04
2022-08-18T18:51:59.020Z,56.76
2022-08-18T18:54:50.039Z,56.95
2022-08-18T18:57:41.898Z,57.34
2022-08-18T19:00:20.889Z,57.81
2022-08-18T19:03:08.247Z,57.77
2022-08-18T19:06:01.002Z,58.71
2022-08-18T19:08:59.678Z,58.66
2022-08-18T19:11:52.855Z,59.14
2022-08-18T19:14:28.620Z,59.56
2022-08-18T19:17:20.010Z,59.31
2022-08-18T19:20:00.488Z,59.69
2022-08-18T19:22:48.989Z,59.72
2022-08-18T19:25:32.694Z,60.28
2022-08-18T19:28:25.884Z,60.47
2022-08-18T19:30:56.929Z,61.07
2022-08-18T19:33:56.646Z,60.43
2022-08-18T19:36:39.570Z,61.31
2022-08-18T19:39:18.395Z,61.81
2022-08-18T19:42:23.351Z,61.71
2022-08-18T19:45:16.784Z,62.37
2022-08-18T19:47:48.653Z,62.79
2022-08-18T19:50:21.782Z,62.92
2022-08-18T19:53:12.516Z,63.24
2022-08-18T19:55:57.940Z,63.38
2022-08-18T19:58:33.133Z,63.88
2022-08-18T20:01:05.061Z,63.96
2022-08-18T20:03:53.541Z,64.22
2022-08-18T20:06:58.997Z,64.01
2022-08-18T20:10:02.801Z,64.07
2022-08-18T20:12:51.535Z,64.84
2022-08-18T20:15:22.469Z,65.29
2022-08-18T20:17:58.216Z,65.16
2022-08-18T20:20:32.572Z,65.74
2022-08-18T20:23:00.275Z,65.85
2022-08-18T20:25:43.604Z,65.67
2022-08-18T20:28:10.461Z,65.89
2022-08-18T20:30:39.810Z,66.55
2022-08-18T20:33:25.762Z,66.19
2022-08-18T20:36:02.375Z,66.60
2022-08-18T20:38:35.642Z,66.96
2022-08-18T20:41:30.088Z,66.82
2022-08-18T20:44:36.634Z,67.09
2022-08-18T20:47:34.020Z,67.09
2022-08-18T20:50:38.102Z,67.71
2022-08-18T20:53:07.686Z,68.35
2022-08-18T20:55:48.926Z,68.43
2022-08-18T20:58:26.392Z,68.72
2022-08-18T21:00:56.919Z,68.94
2022-08-18T21:03:47.565Z,68.96
2022-08-18T21:06:15.633Z,69.23
2022-08-18T21:09:00.438Z,69.04
2022-08-18T21:11:32.390Z,69.67
2022-08-18T21:14:04.170Z,70.06
2022-08-18T21:16:38.837Z,70.33
2022-08-18T21:19:20.753Z,70.48
2022-08-18T21:21:51.867Z,70.93
2022-08-18T21:24:28.887Z,71.26
2022-08-18T21:27:02.822Z,71.75
2022-08-18T21:29:47.143Z,71.94
2022-08-18T21:32:31.302Z,71.76
2022-08-18T21:35:03.307Z,72.29
2022-08-18T21:37:32.791Z,71.79
2022-08-18T21:40:03.035Z,71.90
2022-08-18T21:42:40.488Z,71.96
2022-08-18T21:45:17.604Z,72.18
2022-08-18T21:47:53.637Z,72.28
2022-08-18T21:50:26.857Z,72.37
2022-08-18T21:52:53.465Z,72.67
2022-08-18T21:55:30.247Z,72.84
2022-08-18T21:58:20.108Z,72.24
2022-08-18T22:01:13.775Z,72.69
2022-08-18T22:04:11.155Z,73.06
2022-08-18T22:06:40.734Z,73.20
2022-08-18T22:09:28.669Z,73.62
2022-08-18T22:12:34.177Z,73.56
2022-08-18T22:15:36.223Z,73.58
2022-08-18T22:18:07.995Z,74.37
2022-08-18T22:20:54.068Z,74.31
2022-08-18T22:23:59.034Z,74.49
2022-08-18T22:26:37.263Z,74.62
2022-08-18T22:29:07.353Z,74.54
2022-08-18T22:31:43.294Z,74.79
2022-08-18T22:34:32.072Z,74.91
2022-08-18T22:37:11.734Z,75.10
2022-08-18T22:40:12.493Z,75.05
2022-08-18T22:42:41.795Z,75.77
2022-08-18T22:45:13.541Z,75.71
2022-08-18T22:47:42.940Z,76.17
2022-08-18T22:50:12.363Z,75.92
2022-08-18T22:52:46.391Z,76.13
2022-08-18T22:55:21.718Z,76.19
2022-08-18T22:57:51.415Z,76.14
2022-08-18T23:00:23.133Z,76.18
2022-08-18T23:02:51.193Z,76.18
2022-08-18T23:05:17.795Z,76.78
2022-08-18T23:07:46.044Z,76.82
2022-08-18T23:10:14.297Z,76.90
2022-08-18T23:12:43.056Z,76.86
2022-08-18T23:15:13.597Z,77.33
2022-08-18T23:17:41.749Z,77.04
2022-08-18T23:20:12.343Z,77.29
2022-08-18T23:22:45.403Z,77.50
2022-08-18T23:25:13.337Z,77.37
2022-08-18T23:27:42.955Z,77.69
2022-08-18T23:30:10.362Z,77.88
2022-08-18T23:32:36.965Z,78.08
2022-08-18T23:35:05.911Z,78.51
2022-08-18T23:37:32.547Z,78.33
2022-08-18T23:39:59.451Z,78.41
2022-08-18T23:42:26.496Z,78.84
2022-08-18T23:45:04.283Z,78.97
2022-08-18T23:47:33.319Z,78.74
2022-08-18T23:49:59.859Z,78.52
2022-08-18T23:52:26.394Z,78.58
2022-08-18T23:54:52.992Z,78.82
2022-08-18T23:57:19.794Z,78.87
2022-08-18T23:59:46.386Z,79.09
